Time;durP1;ratioP1;P1;durP2;ratioP2;P2;SDS_P1;SDS_P2;PMS_P1;PMS_P2;Temp;Humidity;BMP_temperature;BMP_pressure;BME280_temperature;BME280_humidity;BME280_pressure;Samples;Min_cycle;Max_cycle;Signal;HPM_P1;HPM_P2
2021/07/01 00:00:27;;;;;;;10.15;4.38;;;;;;;;;;5076265;28;20032;-73
2021/07/01 00:02:56;;;;;;;10.70;4.10;;;;;;;;;;5094350;28;20023;-73
2021/07/01 00:05:22;;;;;;;10.68;4.63;;;;;;;;;;5074059;28;20028;-72
2021/07/01 00:07:48;;;;;;;9.98;4.18;;;;;;;;;;5073828;28;20384;-73
2021/07/01 00:10:18;;;;;;;11.18;4.15;;;;;;;;;;5074682;28;20032;-72
2021/07/01 00:12:44;;;;;;;10.48;4.72;;;;;;;;;;5068172;28;20065;-72
2021/07/01 00:15:14;;;;;;;13.00;5.43;;;;;;;;;;5094235;28;20032;-72
2021/07/01 00:17:42;;;;;;;12.38;4.28;;;;;;;;;;5093994;28;20098;-72
2021/07/01 00:20:09;;;;;;;13.07;4.38;;;;;;;;;;5078839;28;20037;-72
2021/07/01 00:22:35;;;;;;;11.05;4.70;;;;;;;;;;5073363;28;20048;-72
2021/07/01 00:25:01;;;;;;;9.45;4.53;;;;;;;;;;5086240;28;20108;-72
2021/07/01 00:27:28;;;;;;;12.68;4.93;;;;;;;;;;5073292;28;20064;-72
2021/07/01 00:29:54;;;;;;;8.65;4.38;;;;;;;;;;5072878;28;20032;-71
2021/07/01 00:32:20;;;;;;;11.00;4.43;;;;;;;;;;5085619;28;20079;-72
2021/07/01 00:34:51;;;;;;;8.52;4.05;;;;;;;;;;5093388;28;20103;-72
2021/07/01 00:37:17;;;;;;;9.50;4.38;;;;;;;;;;5078612;28;20419;-72
2021/07/01 00:39:50;;;;;;;8.75;4.22;;;;;;;;;;5078308;28;20024;-73
2021/07/01 00:42:15;;;;;;;9.90;4.93;;;;;;;;;;5093927;28;20380;-72
2021/07/01 00:44:40;;;;;;;12.93;4.38;;;;;;;;;;5077346;28;20027;-73
2021/07/01 00:47:23;;;;;;;10.43;4.35;;;;;;;;;;5076178;28;20459;-72
2021/07/01 00:49:49;;;;;;;10.90;4.85;;;;;;;;;;5093679;28;20383;-72
2021/07/01 00:52:14;;;;;;;11.80;4.38;;;;;;;;;;5093369;28;20028;-72
2021/07/01 00:54:59;;;;;;;10.32;3.92;;;;;;;;;;5091730;28;20107;-72
2021/07/01 00:57:25;;;;;;;9.95;4.30;;;;;;;;;;5054974;28;20103;-72
2021/07/01 00:59:51;;;;;;;8.55;4.00;;;;;;;;;;5091748;28;20116;-73
2021/07/01 01:02:17;;;;;;;11.68;4.47;;;;;;;;;;5093588;28;20028;-72
2021/07/01 01:04:43;;;;;;;10.65;4.40;;;;;;;;;;5093414;28;20063;-71
2021/07/01 01:07:09;;;;;;;8.70;3.88;;;;;;;;;;5090508;28;20013;-72
2021/07/01 01:09:35;;;;;;;8.90;3.92;;;;;;;;;;5072987;28;20090;-72
2021/07/01 01:12:01;;;;;;;8.65;4.00;;;;;;;;;;5083278;28;20020;-72
2021/07/01 01:14:36;;;;;;;10.15;4.72;;;;;;;;;;5088263;28;20024;-72
2021/07/01 01:17:02;;;;;;;11.30;4.65;;;;;;;;;;5093086;28;20052;-72
2021/07/01 01:19:28;;;;;;;9.02;4.40;;;;;;;;;;5093064;28;20043;-72
2021/07/01 01:21:55;;;;;;;10.25;4.38;;;;;;;;;;5092599;28;20032;-71
2021/07/01 01:24:21;;;;;;;10.55;4.80;;;;;;;;;;5093287;28;20415;-72
2021/07/01 01:26:46;;;;;;;9.70;4.10;;;;;;;;;;5092186;28;20047;-73
2021/07/01 01:29:13;;;;;;;11.65;4.50;;;;;;;;;;5080423;28;20392;-72
2021/07/01 01:31:38;;;;;;;8.60;4.20;;;;;;;;;;5072934;28;20024;-71
2021/07/01 01:34:05;;;;;;;9.48;3.72;;;;;;;;;;5072882;28;20059;-72
2021/07/01 01:36:40;;;;;;;9.27;4.18;;;;;;;;;;5073957;28;20035;-72
2021/07/01 01:39:06;;;;;;;9.93;4.13;;;;;;;;;;5091003;28;20031;-73
2021/07/01 01:41:31;;;;;;;10.63;4.80;;;;;;;;;;5073997;28;20383;-72
2021/07/01 01:43:57;;;;;;;10.93;4.35;;;;;;;;;;5071878;28;20438;-72
2021/07/01 01:46:23;;;;;;;7.70;4.13;;;;;;;;;;5072498;28;20097;-72
2021/07/01 01:48:52;;;;;;;10.05;4.00;;;;;;;;;;5092763;28;20071;-72
2021/07/01 01:51:38;;;;;;;11.32;3.88;;;;;;;;;;5079865;28;20032;-73
2021/07/01 01:54:07;;;;;;;9.30;3.95;;;;;;;;;;5074164;28;20028;-71
2021/07/01 01:56:38;;;;;;;11.25;4.03;;;;;;;;;;5092728;28;20035;-71
2021/07/01 01:59:19;;;;;;;7.28;3.40;;;;;;;;;;5092987;28;20118;-72
2021/07/01 02:01:44;;;;;;;9.85;3.78;;;;;;;;;;5092883;28;20024;-72
2021/07/01 02:04:09;;;;;;;8.20;3.53;;;;;;;;;;5092882;28;20054;-72
2021/07/01 02:06:45;;;;;;;8.13;3.38;;;;;;;;;;5073622;28;20107;-71
2021/07/01 02:09:11;;;;;;;9.23;3.80;;;;;;;;;;5072434;28;20029;-71
2021/07/01 02:11:36;;;;;;;12.68;3.65;;;;;;;;;;5072417;28;20035;-72
2021/07/01 02:14:02;;;;;;;10.65;3.50;;;;;;;;;;5088915;28;20046;-72
2021/07/01 02:16:28;;;;;;;9.20;3.22;;;;;;;;;;5072447;28;20025;-72
2021/07/01 02:19:00;;;;;;;9.57;3.72;;;;;;;;;;5072234;28;20024;-72
2021/07/01 02:21:26;;;;;;;11.60;4.18;;;;;;;;;;5072347;28;20025;-71
2021/07/01 02:23:51;;;;;;;7.05;3.38;;;;;;;;;;5085017;28;20024;-72
2021/07/01 02:26:39;;;;;;;9.88;3.80;;;;;;;;;;5085019;28;20359;-72
2021/07/01 02:29:04;;;;;;;8.60;3.50;;;;;;;;;;5072228;28;20492;-72
2021/07/01 02:31:29;;;;;;;8.98;3.80;;;;;;;;;;5072565;28;20031;-71
2021/07/01 02:34:00;;;;;;;10.15;3.95;;;;;;;;;;5075284;28;20055;-72
2021/07/01 02:36:26;;;;;;;9.05;3.83;;;;;;;;;;5092845;28;20020;-71
2021/07/01 02:38:51;;;;;;;10.40;3.75;;;;;;;;;;5078248;28;20035;-70
2021/07/01 02:41:17;;;;;;;11.88;4.05;;;;;;;;;;5074871;28;20058;-72
2021/07/01 02:43:42;;;;;;;10.65;3.60;;;;;;;;;;5075126;28;20058;-72
2021/07/01 02:46:09;;;;;;;10.80;4.10;;;;;;;;;;5075615;28;20097;-72
2021/07/01 02:48:34;;;;;;;8.38;3.75;;;;;;;;;;5094629;28;20028;-73
2021/07/01 02:51:10;;;;;;;6.97;3.45;;;;;;;;;;5095659;28;20035;-72
2021/07/01 02:53:35;;;;;;;8.13;4.32;;;;;;;;;;5095744;28;20019;-72
2021/07/01 02:56:01;;;;;;;8.63;3.88;;;;;;;;;;5091614;28;20032;-72
2021/07/01 02:58:26;;;;;;;15.20;4.32;;;;;;;;;;5095611;28;20020;-72
2021/07/01 03:00:52;;;;;;;15.85;4.20;;;;;;;;;;5095644;28;20518;-72
2021/07/01 03:03:17;;;;;;;9.68;4.03;;;;;;;;;;5095618;28;20020;-72
2021/07/01 03:05:44;;;;;;;10.02;3.78;;;;;;;;;;5095702;28;20035;-73
2021/07/01 03:08:09;;;;;;;9.88;4.05;;;;;;;;;;5079906;28;20027;-72
2021/07/01 03:10:34;;;;;;;8.50;4.22;;;;;;;;;;5075236;28;20468;-72
2021/07/01 03:13:03;;;;;;;10.40;5.35;;;;;;;;;;5080852;28;20074;-72
2021/07/01 03:15:28;;;;;;;10.85;4.70;;;;;;;;;;5081497;28;20063;-73
2021/07/01 03:17:53;;;;;;;8.13;4.15;;;;;;;;;;5074862;28;20061;-72
2021/07/01 03:20:24;;;;;;;7.90;4.40;;;;;;;;;;5074843;28;20027;-71
2021/07/01 03:22:50;;;;;;;11.63;4.45;;;;;;;;;;5075038;28;20032;-72
2021/07/01 03:25:15;;;;;;;11.07;4.22;;;;;;;;;;5074884;28;20382;-71
2021/07/01 03:27:45;;;;;;;10.77;4.55;;;;;;;;;;5084078;28;20044;-71
2021/07/01 03:30:11;;;;;;;10.48;4.25;;;;;;;;;;5095151;28;20032;-72
2021/07/01 03:32:37;;;;;;;10.55;4.70;;;;;;;;;;5094940;28;20387;-72
2021/07/01 03:35:07;;;;;;;11.52;4.53;;;;;;;;;;5094597;28;20031;-71
2021/07/01 03:37:32;;;;;;;9.23;4.38;;;;;;;;;;5085640;28;20028;-72
2021/07/01 03:39:58;;;;;;;10.52;3.90;;;;;;;;;;5074909;28;20387;-71
2021/07/01 03:42:25;;;;;;;6.55;3.45;;;;;;;;;;5056165;28;20032;-71
2021/07/01 03:44:51;;;;;;;8.30;4.03;;;;;;;;;;5089188;28;20035;-72
2021/07/01 03:47:17;;;;;;;8.82;3.72;;;;;;;;;;5087914;28;20372;-71
2021/07/01 03:49:44;;;;;;;10.45;4.40;;;;;;;;;;5086769;28;20034;-71
2021/07/01 03:52:10;;;;;;;10.48;4.32;;;;;;;;;;5094647;28;20036;-71
2021/07/01 03:54:36;;;;;;;10.20;3.85;;;;;;;;;;5094743;28;20486;-72
2021/07/01 03:57:03;;;;;;;16.30;4.45;;;;;;;;;;5079643;28;20103;-72
2021/07/01 03:59:29;;;;;;;13.07;4.68;;;;;;;;;;5084697;28;20029;-73
2021/07/01 04:01:54;;;;;;;13.48;4.38;;;;;;;;;;5082118;28;20031;-71
2021/07/01 04:04:20;;;;;;;12.52;5.13;;;;;;;;;;5094031;28;20479;-72
2021/07/01 04:06:45;;;;;;;12.95;5.05;;;;;;;;;;5091965;28;20020;-71
2021/07/01 04:09:10;;;;;;;9.60;4.78;;;;;;;;;;5073014;28;20028;-71
2021/07/01 04:11:40;;;;;;;9.00;4.55;;;;;;;;;;5085738;28;20028;-72
2021/07/01 04:14:06;;;;;;;13.20;5.10;;;;;;;;;;5094013;28;20099;-71
2021/07/01 04:16:31;;;;;;;9.77;4.65;;;;;;;;;;5078632;28;20128;-70
2021/07/01 04:18:59;;;;;;;11.38;4.57;;;;;;;;;;5075024;28;20090;-70
2021/07/01 04:21:27;;;;;;;8.77;4.18;;;;;;;;;;5073604;28;20024;-71
2021/07/01 04:23:55;;;;;;;11.50;4.30;;;;;;;;;;5088049;28;20099;-71
2021/07/01 04:26:24;;;;;;;12.77;4.70;;;;;;;;;;5093870;28;20069;-72
2021/07/01 04:28:50;;;;;;;9.75;4.18;;;;;;;;;;5089007;28;20107;-71
2021/07/01 04:31:16;;;;;;;9.80;4.63;;;;;;;;;;5082222;28;20105;-71
2021/07/01 04:33:53;;;;;;;7.20;3.97;;;;;;;;;;5073610;28;20017;-71
2021/07/01 04:36:18;;;;;;;8.07;4.55;;;;;;;;;;5073397;28;20111;-71
2021/07/01 04:38:44;;;;;;;9.13;4.15;;;;;;;;;;5073524;28;20070;-69
2021/07/01 04:41:13;;;;;;;11.50;4.47;;;;;;;;;;5089767;28;20051;-69
2021/07/01 04:43:39;;;;;;;8.35;4.43;;;;;;;;;;5093463;28;20024;-69
2021/07/01 04:46:04;;;;;;;9.02;4.65;;;;;;;;;;5083715;28;20023;-70
2021/07/01 04:48:30;;;;;;;9.48;4.40;;;;;;;;;;5088395;28;20110;-69
2021/07/01 04:50:55;;;;;;;8.70;4.50;;;;;;;;;;5080833;28;20391;-69
2021/07/01 04:53:20;;;;;;;8.43;4.20;;;;;;;;;;5082443;28;20030;-70
2021/07/01 04:55:46;;;;;;;9.23;4.25;;;;;;;;;;5083319;28;20023;-70
2021/07/01 04:58:11;;;;;;;7.30;3.80;;;;;;;;;;5073210;28;20112;-70
2021/07/01 05:00:37;;;;;;;7.80;4.03;;;;;;;;;;5081790;28;20050;-71
2021/07/01 05:03:08;;;;;;;7.15;3.65;;;;;;;;;;5075943;28;20029;-70
2021/07/01 05:05:34;;;;;;;7.18;3.45;;;;;;;;;;5087206;28;20019;-70
2021/07/01 05:07:59;;;;;;;7.90;3.80;;;;;;;;;;5072876;28;20383;-70
2021/07/01 05:10:31;;;;;;;8.18;3.28;;;;;;;;;;5073049;28;20020;-71
2021/07/01 05:12:58;;;;;;;5.18;3.70;;;;;;;;;;5072880;28;20094;-70
2021/07/01 05:15:23;;;;;;;6.13;3.25;;;;;;;;;;5074413;28;20036;-71
2021/07/01 05:17:50;;;;;;;4.20;3.00;;;;;;;;;;5092998;28;20149;-69
2021/07/01 05:20:15;;;;;;;8.13;3.20;;;;;;;;;;5087855;28;20115;-70
2021/07/01 05:22:41;;;;;;;5.53;3.10;;;;;;;;;;5072499;28;20063;-70
2021/07/01 05:25:07;;;;;;;7.80;2.72;;;;;;;;;;5071480;28;20487;-70
2021/07/01 05:27:32;;;;;;;6.60;3.17;;;;;;;;;;5072404;28;20044;-70
2021/07/01 05:29:58;;;;;;;5.43;2.70;;;;;;;;;;5072749;28;20028;-70
2021/07/01 05:32:24;;;;;;;3.72;2.58;;;;;;;;;;5072158;28;20414;-70
2021/07/01 05:34:50;;;;;;;5.00;2.10;;;;;;;;;;5053575;28;20036;-71
2021/07/01 05:37:15;;;;;;;5.70;2.20;;;;;;;;;;5072088;28;20086;-71
2021/07/01 05:39:42;;;;;;;5.13;2.08;;;;;;;;;;5072562;28;20107;-70
2021/07/01 05:42:08;;;;;;;3.70;1.90;;;;;;;;;;5072696;28;20091;-71
2021/07/01 05:44:33;;;;;;;2.97;1.48;;;;;;;;;;5072741;28;20506;-70
2021/07/01 05:47:00;;;;;;;3.03;1.85;;;;;;;;;;5072632;28;20031;-69
2021/07/01 05:49:26;;;;;;;4.07;1.67;;;;;;;;;;5072405;28;20035;-70
2021/07/01 05:51:56;;;;;;;5.72;2.28;;;;;;;;;;5071753;28;20024;-70
2021/07/01 05:56:47;;;;;;;6.45;1.90;;;;;;;;;;5072452;28;20029;-70
2021/07/01 05:59:12;;;;;;;4.45;1.90;;;;;;;;;;5072263;28;20020;-70
2021/07/01 06:01:46;;;;;;;5.30;1.83;;;;;;;;;;5072452;28;20060;-69
2021/07/01 06:04:12;;;;;;;4.35;1.73;;;;;;;;;;5072186;28;20104;-70
2021/07/01 06:06:40;;;;;;;3.75;1.80;;;;;;;;;;5074645;28;20109;-69
2021/07/01 06:09:15;;;;;;;4.97;2.10;;;;;;;;;;5075988;28;20029;-71
2021/07/01 06:11:42;;;;;;;5.38;2.22;;;;;;;;;;5076045;28;20024;-69
2021/07/01 06:14:10;;;;;;;4.63;2.00;;;;;;;;;;5076119;28;20460;-69
2021/07/01 06:16:37;;;;;;;3.58;1.90;;;;;;;;;;5075441;28;20044;-73
2021/07/01 06:19:04;;;;;;;3.75;1.95;;;;;;;;;;5075709;28;20391;-72
2021/07/01 06:21:31;;;;;;;3.15;1.50;;;;;;;;;;5075691;28;20036;-72
2021/07/01 06:23:58;;;;;;;4.43;1.85;;;;;;;;;;5075694;28;20028;-72
2021/07/01 06:26:27;;;;;;;3.67;1.77;;;;;;;;;;5075545;28;20491;-71
2021/07/01 06:28:53;;;;;;;5.45;1.73;;;;;;;;;;5064414;28;20043;-73
2021/07/01 06:31:19;;;;;;;3.15;1.92;;;;;;;;;;5056227;28;20029;-72
2021/07/01 06:33:45;;;;;;;3.08;2.17;;;;;;;;;;5075698;28;20023;-71
2021/07/01 06:36:12;;;;;;;6.13;2.47;;;;;;;;;;5070014;28;20078;-73
2021/07/01 06:38:42;;;;;;;3.10;2.00;;;;;;;;;;5055266;28;20029;-73
2021/07/01 06:41:17;;;;;;;5.40;2.08;;;;;;;;;;5055655;28;20024;-72
2021/07/01 06:43:46;;;;;;;4.65;2.38;;;;;;;;;;5067481;28;20035;-72
2021/07/01 06:46:14;;;;;;;4.82;2.30;;;;;;;;;;5075766;28;20023;-72
2021/07/01 06:48:41;;;;;;;4.50;2.60;;;;;;;;;;5074859;28;20028;-72
2021/07/01 06:51:07;;;;;;;5.47;2.97;;;;;;;;;;5074118;28;20031;-71
2021/07/01 06:53:36;;;;;;;4.38;2.88;;;;;;;;;;5072144;28;20024;-69
2021/07/01 06:56:02;;;;;;;4.38;2.58;;;;;;;;;;5075329;28;20025;-70
2021/07/01 06:58:28;;;;;;;3.85;2.58;;;;;;;;;;5065462;28;20033;-71
2021/07/01 07:00:56;;;;;;;5.30;2.70;;;;;;;;;;5072118;28;20075;-73
2021/07/01 07:03:27;;;;;;;4.47;2.60;;;;;;;;;;5075305;28;20028;-74
2021/07/01 07:05:54;;;;;;;4.43;2.47;;;;;;;;;;5075015;28;20036;-73
2021/07/01 07:08:25;;;;;;;5.32;2.53;;;;;;;;;;5075024;28;20115;-72
2021/07/01 07:10:51;;;;;;;5.22;2.80;;;;;;;;;;5074357;28;20031;-74
2021/07/01 07:13:24;;;;;;;4.15;2.90;;;;;;;;;;5056612;28;20380;-74
2021/07/01 07:15:50;;;;;;;;;;;;;;;;;;5057250;28;20576;-71
2021/07/01 07:18:22;;;;;;;4.13;2.72;;;;;;;;;;5074171;28;19913;-71
2021/07/01 07:23:38;;;;;;;4.10;2.78;;;;;;;;;;5074993;28;20102;-73
2021/07/01 07:26:16;;;;;;;5.63;2.58;;;;;;;;;;5077113;28;20484;-73
2021/07/01 07:28:43;;;;;;;5.53;2.90;;;;;;;;;;5061972;28;20029;-73
2021/07/01 07:31:11;;;;;;;5.35;2.75;;;;;;;;;;5069707;28;20035;-71
2021/07/01 07:33:38;;;;;;;3.97;2.80;;;;;;;;;;5066333;28;20032;-73
2021/07/01 07:36:04;;;;;;;3.63;2.83;;;;;;;;;;5054530;28;20416;-73
2021/07/01 07:38:30;;;;;;;5.78;3.20;;;;;;;;;;5074437;28;20632;-72
2021/07/01 07:40:57;;;;;;;5.68;3.28;;;;;;;;;;5071918;28;20028;-73
2021/07/01 07:43:25;;;;;;;6.07;3.38;;;;;;;;;;5057022;28;20095;-72
2021/07/01 07:45:52;;;;;;;6.88;3.40;;;;;;;;;;5061301;28;20029;-73
2021/07/01 07:48:18;;;;;;;5.82;3.15;;;;;;;;;;5073730;28;20028;-72
2021/07/01 07:50:49;;;;;;;6.13;3.63;;;;;;;;;;5066908;28;20033;-74
2021/07/01 07:53:20;;;;;;;6.13;3.72;;;;;;;;;;5054386;28;20025;-74
2021/07/01 07:56:05;;;;;;;7.03;3.97;;;;;;;;;;5061466;28;20413;-75
2021/07/01 07:58:34;;;;;;;6.30;4.82;;;;;;;;;;5051112;28;20024;-70
2021/07/01 08:01:01;;;;;;;5.30;4.00;;;;;;;;;;5064212;28;20388;-70
2021/07/01 08:03:31;;;;;;;7.18;4.50;;;;;;;;;;5056400;28;20028;-70
2021/07/01 08:05:59;;;;;;;6.50;4.15;;;;;;;;;;5057735;28;20064;-71
2021/07/01 08:08:32;;;;;;;7.57;5.03;;;;;;;;;;5060405;28;20123;-71
2021/07/01 08:10:59;;;;;;;8.23;5.30;;;;;;;;;;5061393;28;20016;-71
2021/07/01 08:13:29;;;;;;;5.78;4.68;;;;;;;;;;5055587;28;20063;-74
2021/07/01 08:15:57;;;;;;;6.95;4.38;;;;;;;;;;5071467;28;20029;-77
2021/07/01 08:18:41;;;;;;;5.53;4.63;;;;;;;;;;5073517;28;20021;-73
2021/07/01 08:21:13;;;;;;;;;;;;;;;;;;5069171;28;20464;-73
2021/07/01 08:23:45;;;;;;;9.80;5.13;;;;;;;;;;5053403;28;19908;-73
2021/07/01 08:26:12;;;;;;;6.25;4.80;;;;;;;;;;5064860;28;20041;-73
2021/07/01 08:28:38;;;;;;;6.75;4.65;;;;;;;;;;5073849;28;20054;-71
2021/07/01 08:31:21;;;;;;;6.80;5.05;;;;;;;;;;5079490;28;20099;-75
2021/07/01 08:33:51;;;;;;;10.88;5.10;;;;;;;;;;5090453;28;20036;-78
2021/07/01 08:36:20;;;;;;;9.13;5.53;;;;;;;;;;5085029;28;20369;-78
2021/07/01 08:38:48;;;;;;;7.68;5.20;;;;;;;;;;5083533;28;20024;-76
2021/07/01 08:41:17;;;;;;;9.02;5.45;;;;;;;;;;5090140;28;20028;-75
2021/07/01 08:43:56;;;;;;;10.40;4.97;;;;;;;;;;5076324;28;20028;-78
2021/07/01 08:46:37;;;;;;;6.50;4.45;;;;;;;;;;5087314;28;20016;-76
2021/07/01 08:49:08;;;;;;;7.20;4.75;;;;;;;;;;5084453;28;20120;-76
2021/07/01 08:51:46;;;;;;;6.32;5.07;;;;;;;;;;5072184;28;20024;-79
2021/07/01 08:54:36;;;;;;;8.75;4.70;;;;;;;;;;5075336;28;20070;-77
2021/07/01 08:57:04;;;;;;;7.78;4.75;;;;;;;;;;5082478;28;20020;-74
2021/07/01 08:59:44;;;;;;;7.07;5.35;;;;;;;;;;5082523;28;20055;-75
2021/07/01 09:02:11;;;;;;;6.35;4.30;;;;;;;;;;5072301;28;20039;-75
2021/07/01 09:04:57;;;;;;;7.60;4.82;;;;;;;;;;5086241;28;20086;-75
2021/07/01 09:07:25;;;;;;;7.63;5.10;;;;;;;;;;5079229;28;20491;-73
2021/07/01 09:10:00;;;;;;;10.25;4.85;;;;;;;;;;5071018;28;20028;-74
2021/07/01 09:12:27;;;;;;;8.32;5.28;;;;;;;;;;5073946;28;20048;-75
2021/07/01 09:15:00;;;;;;;6.72;5.15;;;;;;;;;;5076665;28;20020;-74
2021/07/01 09:17:28;;;;;;;7.15;4.88;;;;;;;;;;5074939;28;20223;-75
2021/07/01 09:20:02;;;;;;;7.80;5.32;;;;;;;;;;5083558;28;20028;-78
2021/07/01 09:22:28;;;;;;;8.25;4.90;;;;;;;;;;5083770;28;20020;-74
2021/07/01 09:24:56;;;;;;;10.82;5.35;;;;;;;;;;5076084;28;20427;-74
2021/07/01 09:27:26;;;;;;;7.80;4.80;;;;;;;;;;5052256;28;20123;-73
2021/07/01 09:29:53;;;;;;;8.13;4.88;;;;;;;;;;5053029;28;20033;-74
2021/07/01 09:32:21;;;;;;;8.50;4.68;;;;;;;;;;5072166;28;20047;-73
2021/07/01 09:34:49;;;;;;;5.70;4.63;;;;;;;;;;5054640;28;20221;-73
2021/07/01 09:37:16;;;;;;;7.25;4.05;;;;;;;;;;5071466;28;20050;-74
2021/07/01 09:39:42;;;;;;;6.63;4.20;;;;;;;;;;5072207;28;20050;-75
2021/07/01 09:42:11;;;;;;;7.15;3.67;;;;;;;;;;5057456;28;20116;-74
2021/07/01 09:44:38;;;;;;;7.43;4.53;;;;;;;;;;5076104;28;20126;-73
2021/07/01 09:47:08;;;;;;;5.63;3.95;;;;;;;;;;5074725;28;20034;-73
2021/07/01 09:49:39;;;;;;;6.28;3.85;;;;;;;;;;5076532;28;20099;-78
2021/07/01 09:52:11;;;;;;;7.68;4.25;;;;;;;;;;5057657;28;20052;-77
2021/07/01 09:54:45;;;;;;;11.65;4.40;;;;;;;;;;5077456;28;20450;-75
2021/07/01 09:57:17;;;;;;;7.55;3.60;;;;;;;;;;5076168;28;20078;-77
2021/07/01 09:59:52;;;;;;;8.57;4.10;;;;;;;;;;5077125;28;20036;-77
2021/07/01 10:02:20;;;;;;;11.57;3.88;;;;;;;;;;5057068;28;20029;-77
2021/07/01 10:04:48;;;;;;;8.27;3.67;;;;;;;;;;5064677;28;20020;-75
2021/07/01 10:07:15;;;;;;;8.10;3.85;;;;;;;;;;5076658;28;20023;-77
2021/07/01 10:09:42;;;;;;;6.35;3.90;;;;;;;;;;5076705;28;20058;-78
2021/07/01 10:12:19;;;;;;;7.53;4.10;;;;;;;;;;5076286;28;20064;-76
2021/07/01 10:14:46;;;;;;;10.05;3.70;;;;;;;;;;5068883;28;20031;-77
2021/07/01 10:17:14;;;;;;;8.48;4.10;;;;;;;;;;5074444;28;20450;-78
2021/07/01 10:19:42;;;;;;;4.53;3.40;;;;;;;;;;5075434;28;20028;-78
2021/07/01 10:22:10;;;;;;;6.50;3.60;;;;;;;;;;5075587;28;20040;-77
2021/07/01 10:24:50;;;;;;;9.55;3.90;;;;;;;;;;5075771;28;20044;-78
2021/07/01 10:27:28;;;;;;;6.07;3.75;;;;;;;;;;5069466;28;20041;-75
2021/07/01 10:29:57;;;;;;;11.60;4.70;;;;;;;;;;5056695;28;20025;-76
2021/07/01 10:32:39;;;;;;;7.13;4.32;;;;;;;;;;5070325;28;20035;-79
2021/07/01 10:35:27;;;;;;;9.63;4.50;;;;;;;;;;5066112;28;20027;-76
2021/07/01 10:38:12;;;;;;;6.05;3.92;;;;;;;;;;5059355;28;20029;-77
2021/07/01 10:40:43;;;;;;;7.22;3.90;;;;;;;;;;5070858;28;20028;-73
2021/07/01 10:43:11;;;;;;;5.65;4.00;;;;;;;;;;5049518;28;20033;-74
2021/07/01 10:45:51;;;;;;;8.35;4.00;;;;;;;;;;5051094;28;20043;-73
2021/07/01 10:48:19;;;;;;;7.35;4.03;;;;;;;;;;5060061;28;20017;-74
2021/07/01 10:50:47;;;;;;;10.75;4.13;;;;;;;;;;5068918;28;20031;-74
2021/07/01 10:53:38;;;;;;;10.75;4.35;;;;;;;;;;5054341;28;20057;-74
2021/07/01 10:56:03;;;;;;;6.90;4.10;;;;;;;;;;5054991;28;20036;-74
2021/07/01 10:58:29;;;;;;;6.03;3.95;;;;;;;;;;5063545;28;20072;-74
2021/07/01 11:00:55;;;;;;;6.05;4.15;;;;;;;;;;5065535;28;20388;-74
2021/07/01 11:03:25;;;;;;;7.43;3.90;;;;;;;;;;5064604;28;20095;-74
2021/07/01 11:05:51;;;;;;;7.47;3.90;;;;;;;;;;5074334;28;20024;-73
2021/07/01 11:08:29;;;;;;;6.88;4.00;;;;;;;;;;5072725;28;20104;-74
2021/07/01 11:10:55;;;;;;;8.82;4.60;;;;;;;;;;5068663;28;20492;-73
2021/07/01 11:13:26;;;;;;;8.05;4.00;;;;;;;;;;5069055;28;20074;-73
2021/07/01 11:16:07;;;;;;;5.35;4.30;;;;;;;;;;5056697;28;20129;-73
2021/07/01 11:18:35;;;;;;;5.50;3.88;;;;;;;;;;5067334;28;20024;-74
2021/07/01 11:21:21;;;;;;;7.20;4.13;;;;;;;;;;5059666;28;20025;-73
2021/07/01 11:23:51;;;;;;;6.68;3.50;;;;;;;;;;5056446;28;20116;-74
2021/07/01 11:26:32;;;;;;;7.57;3.47;;;;;;;;;;5068065;28;20036;-73
2021/07/01 11:28:59;;;;;;;7.55;3.50;;;;;;;;;;5086592;28;20024;-75
2021/07/01 11:31:41;;;;;;;12.98;3.95;;;;;;;;;;5077713;28;20491;-75
2021/07/01 11:34:08;;;;;;;4.70;3.30;;;;;;;;;;5074477;28;20108;-72
2021/07/01 11:36:38;;;;;;;8.00;3.90;;;;;;;;;;5068991;28;20395;-72
2021/07/01 11:39:08;;;;;;;6.90;3.60;;;;;;;;;;5083502;28;20032;-72
2021/07/01 11:41:43;;;;;;;11.45;4.07;;;;;;;;;;5085759;28;20032;-72
2021/07/01 11:44:11;;;;;;;8.25;3.88;;;;;;;;;;5078744;28;20032;-72
2021/07/01 11:46:40;;;;;;;7.70;3.67;;;;;;;;;;5058587;28;20024;-72
2021/07/01 11:49:07;;;;;;;5.53;3.38;;;;;;;;;;5076691;28;20028;-72
2021/07/01 11:51:34;;;;;;;5.40;3.40;;;;;;;;;;5082980;28;20341;-73
2021/07/01 11:54:01;;;;;;;4.78;3.08;;;;;;;;;;5085636;28;20024;-72
2021/07/01 11:56:27;;;;;;;7.00;3.47;;;;;;;;;;5091239;28;20145;-73
2021/07/01 11:58:53;;;;;;;4.43;3.47;;;;;;;;;;5089907;28;20379;-70
2021/07/01 12:01:21;;;;;;;6.00;3.65;;;;;;;;;;5083093;28;20024;-70
2021/07/01 12:03:51;;;;;;;6.53;3.28;;;;;;;;;;5085419;28;20055;-73
2021/07/01 12:07:00;;;;;;;5.60;3.55;;;;;;;;;;5087551;28;20023;-72
2021/07/01 12:09:26;;;;;;;5.60;3.40;;;;;;;;;;5009491;28;20376;-72
2021/07/01 12:12:05;;;;;;;6.82;3.60;;;;;;;;;;5087782;28;20332;-70
2021/07/01 12:14:37;;;;;;;6.00;3.50;;;;;;;;;;5073560;28;20026;-72
2021/07/01 12:17:03;;;;;;;6.40;3.38;;;;;;;;;;5077420;28;20025;-73
2021/07/01 12:19:48;;;;;;;6.28;3.40;;;;;;;;;;5074170;28;20027;-72
2021/07/01 12:22:46;;;;;;;9.23;3.65;;;;;;;;;;5077710;28;20085;-73
2021/07/01 12:25:29;;;;;;;7.72;3.63;;;;;;;;;;5083148;28;20544;-73
2021/07/01 12:28:28;;;;;;;6.35;3.78;;;;;;;;;;5085616;28;20108;-73
2021/07/01 12:31:08;;;;;;;7.55;3.85;;;;;;;;;;5093135;28;20102;-72
2021/07/01 12:33:58;;;;;;;9.40;4.00;;;;;;;;;;5093202;28;20448;-73
2021/07/01 12:36:29;;;;;;;10.43;4.00;;;;;;;;;;5093501;28;20047;-72
2021/07/01 12:39:06;;;;;;;6.05;4.20;;;;;;;;;;5093100;28;20024;-73
2021/07/01 12:41:34;;;;;;;7.20;4.32;;;;;;;;;;5090015;28;20099;-72
2021/07/01 12:44:10;;;;;;;5.65;4.30;;;;;;;;;;5092179;28;20027;-75
2021/07/01 12:46:50;;;;;;;6.45;4.13;;;;;;;;;;5088918;28;20525;-74
2021/07/01 12:49:16;;;;;;;6.00;4.20;;;;;;;;;;5073033;28;20020;-75
2021/07/01 12:51:45;;;;;;;6.50;4.30;;;;;;;;;;5091246;28;20028;-75
2021/07/01 12:54:38;;;;;;;5.60;4.13;;;;;;;;;;5072933;28;20486;-74
2021/07/01 12:57:05;;;;;;;6.75;4.57;;;;;;;;;;5055245;28;20499;-76
2021/07/01 12:59:48;;;;;;;8.25;4.22;;;;;;;;;;5091081;28;20067;-74
2021/07/01 13:02:18;;;;;;;8.18;4.00;;;;;;;;;;5092783;28;20482;-74
2021/07/01 13:04:51;;;;;;;7.00;4.40;;;;;;;;;;5093125;28;20514;-76
2021/07/01 13:07:17;;;;;;;;;;;;;;;;;;5092123;28;20395;-75
2021/07/01 13:09:47;;;;;;;5.97;4.20;;;;;;;;;;5091705;28;19912;-76
2021/07/01 13:12:26;;;;;;;7.38;4.30;;;;;;;;;;5091500;28;20030;-76
2021/07/01 13:14:53;;;;;;;5.88;3.92;;;;;;;;;;5092057;28;20020;-74
2021/07/01 13:17:19;;;;;;;6.40;4.63;;;;;;;;;;5092441;28;20082;-74
2021/07/01 13:19:51;;;;;;;5.68;4.15;;;;;;;;;;5091737;28;20388;-75
2021/07/01 13:22:18;;;;;;;9.68;4.72;;;;;;;;;;5091643;28;20078;-76
2021/07/01 13:24:55;;;;;;;4.93;3.95;;;;;;;;;;5089254;28;20054;-75
2021/07/01 13:27:38;;;;;;;5.40;3.67;;;;;;;;;;5086359;28;20032;-74
2021/07/01 13:30:25;;;;;;;8.07;4.72;;;;;;;;;;5087185;28;20119;-77
2021/07/01 13:33:05;;;;;;;6.78;4.47;;;;;;;;;;5091999;28;20384;-74
2021/07/01 13:35:36;;;;;;;6.70;4.25;;;;;;;;;;5073066;28;20047;-76
2021/07/01 13:38:06;;;;;;;5.25;4.13;;;;;;;;;;5073054;28;20436;-77
2021/07/01 13:40:33;;;;;;;6.15;4.13;;;;;;;;;;5072213;28;20025;-76
2021/07/01 13:43:03;;;;;;;6.43;4.32;;;;;;;;;;5079488;28;20035;-74
2021/07/01 13:45:29;;;;;;;10.45;4.22;;;;;;;;;;5088871;28;20028;-74
2021/07/01 13:47:57;;;;;;;6.95;4.05;;;;;;;;;;5090271;28;20051;-76
2021/07/01 13:50:37;;;;;;;7.00;4.28;;;;;;;;;;5090866;28;20027;-74
2021/07/01 13:53:08;;;;;;;5.10;4.10;;;;;;;;;;5090085;28;20023;-77
2021/07/01 13:55:35;;;;;;;6.38;3.92;;;;;;;;;;5091239;28;20016;-74
2021/07/01 13:58:01;;;;;;;7.72;4.28;;;;;;;;;;5090855;28;20042;-75
2021/07/01 14:00:42;;;;;;;4.72;3.70;;;;;;;;;;5092316;28;20028;-74
2021/07/01 14:03:15;;;;;;;7.38;4.15;;;;;;;;;;5091368;28;20028;-77
2021/07/01 14:05:43;;;;;;;5.93;4.05;;;;;;;;;;5091696;28;20064;-76
2021/07/01 14:08:21;;;;;;;5.50;4.10;;;;;;;;;;5079454;28;20031;-75
2021/07/01 14:10:59;;;;;;;6.45;3.80;;;;;;;;;;5071629;28;20075;-74
2021/07/01 14:13:24;;;;;;;8.70;4.32;;;;;;;;;;5067345;28;20059;-76
2021/07/01 14:15:53;;;;;;;5.90;4.07;;;;;;;;;;5089954;28;20105;-75
2021/07/01 14:18:19;;;;;;;6.25;3.90;;;;;;;;;;5091007;28;20028;-75
2021/07/01 14:20:47;;;;;;;7.00;3.65;;;;;;;;;;5090613;28;20502;-77
2021/07/01 14:23:24;;;;;;;4.75;3.70;;;;;;;;;;5089750;28;20073;-78
2021/07/01 14:25:53;;;;;;;8.32;4.00;;;;;;;;;;5090750;28;20034;-77
2021/07/01 14:28:27;;;;;;;4.68;3.65;;;;;;;;;;5074034;28;20357;-76
2021/07/01 14:30:55;;;;;;;6.00;3.85;;;;;;;;;;5083035;28;20083;-76
2021/07/01 14:33:34;;;;;;;7.95;3.72;;;;;;;;;;5094700;28;20061;-76
2021/07/01 14:36:19;;;;;;;6.82;4.18;;;;;;;;;;5094604;28;20027;-75
2021/07/01 14:38:54;;;;;;;6.53;3.80;;;;;;;;;;5094534;28;20019;-75
2021/07/01 14:41:30;;;;;;;9.00;4.50;;;;;;;;;;5089837;28;20166;-74
2021/07/01 14:44:20;;;;;;;9.73;4.25;;;;;;;;;;5094697;28;20024;-74
2021/07/01 14:46:52;;;;;;;6.97;3.90;;;;;;;;;;5059881;28;20089;-76
2021/07/01 14:49:20;;;;;;;8.55;4.22;;;;;;;;;;5094663;28;20102;-74
2021/07/01 14:51:52;;;;;;;6.13;4.30;;;;;;;;;;5094676;28;20028;-76
2021/07/01 14:54:27;;;;;;;6.28;3.72;;;;;;;;;;5094890;28;20329;-75
2021/07/01 14:57:15;;;;;;;6.03;4.18;;;;;;;;;;5093632;28;20028;-74
2021/07/01 15:00:06;;;;;;;5.90;4.05;;;;;;;;;;5086160;28;20040;-76
2021/07/01 15:03:00;;;;;;;7.53;4.22;;;;;;;;;;5077413;28;20123;-76